Time;durP1;ratioP1;P1;durP2;ratioP2;P2;SDS_P1;SDS_P2;PMS_P1;PMS_P2;Temp;Humidity;BMP_temperature;BMP_pressure;BME280_temperature;BME280_humidity;BME280_pressure;Samples;Min_cycle;Max_cycle;Signal;HPM_P1;HPM_P2
2021/04/24 00:01:30;;;;;;;11.50;5.90;;;4.90;99.90;;;;;;5010200;28;20973;-65
2021/04/24 00:03:57;;;;;;;10.17;7.13;;;4.80;99.90;;;;;;5009690;28;20469;-66
2021/04/24 00:06:24;;;;;;;15.17;7.13;;;4.70;99.90;;;;;;5010751;28;20588;-66
2021/04/24 00:08:50;;;;;;;8.87;7.27;;;4.70;99.90;;;;;;5009993;28;20535;-66
2021/04/24 00:11:17;;;;;;;9.63;7.27;;;4.60;99.90;;;;;;5010073;28;20529;-65
2021/04/24 00:13:44;;;;;;;12.40;7.20;;;4.40;99.90;;;;;;5009161;28;21032;-66
2021/04/24 00:16:11;;;;;;;12.20;7.00;;;4.30;99.90;;;;;;5009841;28;20533;-66
2021/04/24 00:18:37;;;;;;;9.90;6.80;;;4.20;99.90;;;;;;5010104;28;20473;-66
2021/04/24 00:21:04;;;;;;;16.47;6.83;;;4.30;99.90;;;;;;5008837;28;20624;-66
2021/04/24 00:23:31;;;;;;;15.00;8.10;;;4.40;99.90;;;;;;5008224;28;20924;-66
2021/04/24 00:25:58;;;;;;;10.27;8.30;;;4.40;99.90;;;;;;5008907;28;21078;-66
2021/04/24 00:28:24;;;;;;;12.00;6.80;;;4.40;99.90;;;;;;5009619;28;20944;-66
2021/04/24 00:30:51;;;;;;;10.77;7.97;;;4.50;99.90;;;;;;5009131;28;20449;-66
2021/04/24 00:33:18;;;;;;;8.23;6.90;;;4.70;99.90;;;;;;5009018;28;20616;-65
2021/04/24 00:35:44;;;;;;;12.00;7.80;;;4.70;99.90;;;;;;5009550;28;20548;-66
2021/04/24 00:38:11;;;;;;;10.73;8.17;;;4.60;99.90;;;;;;5010667;28;20561;-66
2021/04/24 00:40:37;;;;;;;11.27;8.17;;;4.40;99.90;;;;;;5009958;28;20967;-66
2021/04/24 00:43:05;;;;;;;9.80;7.60;;;4.20;99.90;;;;;;5009447;28;20976;-66
2021/04/24 00:45:32;;;;;;;13.20;7.80;;;4.10;99.90;;;;;;5002435;28;21177;-66
2021/04/24 00:48:00;;;;;;;13.17;7.83;;;3.90;99.90;;;;;;5004428;28;20929;-66
2021/04/24 00:50:29;;;;;;;11.33;8.40;;;3.90;99.90;;;;;;5010820;28;20457;-66
2021/04/24 00:52:55;;;;;;;10.50;8.53;;;3.90;99.90;;;;;;5011537;28;21079;-66
2021/04/24 00:55:22;;;;;;;11.07;7.33;;;4.00;99.90;;;;;;5010860;28;20700;-66
2021/04/24 00:57:49;;;;;;;11.37;7.90;;;4.10;99.90;;;;;;5010847;28;20542;-66
2021/04/24 01:00:17;;;;;;;13.70;8.87;;;4.20;99.90;;;;;;5006078;28;20466;-65
2021/04/24 01:02:43;;;;;;;10.37;7.87;;;4.10;99.90;;;;;;5008181;28;21054;-66
2021/04/24 01:05:14;;;;;;;15.60;8.10;;;4.10;99.90;;;;;;5003646;28;20588;-66
2021/04/24 01:07:43;;;;;;;11.57;8.20;;;3.90;99.90;;;;;;5010932;28;20450;-66
2021/04/24 01:10:12;;;;;;;13.73;8.40;;;3.80;99.90;;;;;;5005148;28;20537;-66
2021/04/24 01:12:38;;;;;;;14.63;8.07;;;3.80;99.90;;;;;;5009091;28;20576;-66
2021/04/24 01:15:07;;;;;;;9.43;7.10;;;3.80;99.90;;;;;;5010378;28;20879;-66
2021/04/24 01:17:33;;;;;;;12.43;7.30;;;3.70;99.90;;;;;;5010247;28;20495;-66
2021/04/24 01:20:00;;;;;;;12.80;7.90;;;3.60;99.90;;;;;;5009487;28;20454;-65
2021/04/24 01:22:27;;;;;;;11.97;7.80;;;3.60;99.90;;;;;;5009528;28;20536;-66
2021/04/24 01:24:54;;;;;;;12.43;7.40;;;3.70;99.90;;;;;;5010208;28;20454;-66
2021/04/24 01:27:20;;;;;;;12.07;8.00;;;3.70;99.90;;;;;;5010136;28;20477;-66
2021/04/24 01:29:46;;;;;;;10.47;7.10;;;3.80;99.90;;;;;;5010088;28;20537;-66
2021/04/24 01:32:13;;;;;;;12.07;8.03;;;3.80;99.90;;;;;;5010476;28;20551;-66
2021/04/24 01:34:39;;;;;;;11.50;8.23;;;3.70;99.90;;;;;;5010210;28;20506;-66
2021/04/24 01:37:06;;;;;;;12.13;8.33;;;3.70;99.90;;;;;;5010580;28;20446;-66
2021/04/24 01:39:33;;;;;;;11.17;7.40;;;3.80;99.90;;;;;;5010858;28;20449;-66
2021/04/24 01:42:00;;;;;;;10.50;8.00;;;3.70;99.90;;;;;;5011482;28;20442;-66
2021/04/24 01:44:26;;;;;;;8.07;7.27;;;3.50;99.90;;;;;;5011144;28;20549;-66
2021/04/24 01:46:53;;;;;;;12.20;8.00;;;3.40;99.90;;;;;;5011258;28;20499;-66
2021/04/24 01:49:19;;;;;;;10.60;7.10;;;3.30;99.90;;;;;;5011197;28;20454;-66
2021/04/24 01:51:46;;;;;;;12.00;7.70;;;3.30;99.90;;;;;;5011074;28;21048;-66
2021/04/24 01:54:13;;;;;;;13.40;8.90;;;3.30;99.90;;;;;;5010011;28;20538;-66
2021/04/24 01:56:48;;;;;;;18.63;8.83;;;3.30;99.90;;;;;;5011528;28;20203;-68
2021/04/24 01:59:15;;;;;;;20.60;9.33;;;3.30;99.90;;;;;;5010425;28;21129;-66
2021/04/24 02:01:46;;;;;;;10.70;7.53;;;3.40;99.90;;;;;;5010322;28;20687;-66
2021/04/24 02:04:13;;;;;;;13.63;8.23;;;3.50;99.90;;;;;;5009952;28;20472;-66
2021/04/24 02:06:39;;;;;;;11.77;8.33;;;3.50;99.90;;;;;;5010927;28;20487;-66
2021/04/24 02:09:08;;;;;;;13.30;7.63;;;3.40;99.90;;;;;;5010397;28;20492;-66
2021/04/24 02:11:35;;;;;;;16.50;7.60;;;3.40;99.90;;;;;;5010527;28;20441;-66
2021/04/24 02:14:04;;;;;;;11.20;7.40;;;3.40;99.90;;;;;;5009806;28;20564;-65
2021/04/24 02:16:31;;;;;;;12.00;8.30;;;3.30;99.90;;;;;;5010411;28;20479;-66
2021/04/24 02:18:58;;;;;;;19.00;8.70;;;3.20;99.90;;;;;;5010498;28;20441;-66
2021/04/24 02:21:24;;;;;;;11.77;7.43;;;3.20;99.90;;;;;;5010241;28;20540;-66
2021/04/24 02:23:51;;;;;;;11.73;8.47;;;3.10;99.90;;;;;;5009539;28;20557;-66
2021/04/24 02:26:17;;;;;;;10.70;7.60;;;3.00;99.90;;;;;;5010547;28;20541;-66
2021/04/24 02:28:44;;;;;;;10.33;7.60;;;2.90;99.90;;;;;;5010526;28;20446;-66
2021/04/24 02:31:11;;;;;;;20.27;8.43;;;2.90;99.90;;;;;;5010347;28;20532;-66
2021/04/24 02:33:37;;;;;;;13.70;8.50;;;2.90;99.90;;;;;;5009882;28;20929;-66
2021/04/24 02:36:05;;;;;;;12.83;7.73;;;2.90;99.90;;;;;;5010124;28;20450;-66
2021/04/24 02:38:33;;;;;;;11.20;7.70;;;2.80;99.90;;;;;;5009886;28;20481;-66
2021/04/24 02:41:01;;;;;;;11.33;7.60;;;2.80;99.90;;;;;;5009658;28;20963;-66
2021/04/24 02:43:28;;;;;;;11.03;8.40;;;2.80;99.90;;;;;;5009494;28;21092;-66
2021/04/24 02:45:55;;;;;;;9.33;8.30;;;2.80;99.90;;;;;;5009802;28;20960;-66
2021/04/24 02:48:22;;;;;;;11.97;7.83;;;2.90;99.90;;;;;;5009174;28;20457;-66
2021/04/24 02:50:49;;;;;;;11.40;8.43;;;2.90;99.90;;;;;;5009581;28;20454;-66
2021/04/24 02:53:16;;;;;;;9.60;7.00;;;2.90;99.90;;;;;;5009216;28;20485;-66
2021/04/24 02:55:42;;;;;;;16.63;7.97;;;2.80;99.90;;;;;;5009690;28;20532;-66
2021/04/24 02:58:08;;;;;;;12.17;8.17;;;2.70;99.90;;;;;;5009866;28;20449;-66
2021/04/24 03:00:35;;;;;;;12.60;9.00;;;2.70;99.90;;;;;;5009777;28;20507;-66
2021/04/24 03:03:03;;;;;;;12.77;8.30;;;2.70;99.90;;;;;;5009331;28;20547;-66
2021/04/24 03:05:31;;;;;;;12.30;8.10;;;2.60;99.90;;;;;;5009568;28;20457;-66
2021/04/24 03:07:57;;;;;;;9.60;7.77;;;2.60;99.90;;;;;;5009458;28;20445;-66
2021/04/24 03:10:25;;;;;;;12.03;7.50;;;2.50;99.90;;;;;;5009455;28;20959;-66
2021/04/24 03:12:52;;;;;;;10.30;8.20;;;2.60;99.90;;;;;;5008956;28;20485;-66
2021/04/24 03:15:19;;;;;;;12.43;7.87;;;2.50;99.90;;;;;;5009654;28;20465;-66
2021/04/24 03:17:46;;;;;;;12.13;6.97;;;2.40;99.90;;;;;;5009391;28;20541;-66
2021/04/24 03:20:15;;;;;;;9.63;6.87;;;2.40;99.90;;;;;;5009234;28;20456;-66
2021/04/24 03:22:43;;;;;;;9.30;6.90;;;2.30;99.90;;;;;;5008918;28;20456;-66
2021/04/24 03:25:10;;;;;;;10.13;7.17;;;2.40;99.90;;;;;;5009495;28;20968;-66
2021/04/24 03:27:37;;;;;;;10.20;7.43;;;2.50;99.90;;;;;;5009648;28;20489;-66
2021/04/24 03:30:06;;;;;;;12.90;7.33;;;2.60;99.90;;;;;;5009661;28;20452;-66
2021/04/24 03:32:32;;;;;;;8.23;7.17;;;2.70;99.90;;;;;;5008960;28;20632;-66
2021/04/24 03:34:59;;;;;;;9.33;7.80;;;2.80;99.90;;;;;;5009246;28;20537;-66
2021/04/24 03:37:25;;;;;;;10.47;8.27;;;2.80;99.90;;;;;;5009260;28;21136;-66
2021/04/24 03:39:53;;;;;;;13.53;7.93;;;2.70;99.90;;;;;;5009245;28;20537;-66
2021/04/24 03:42:19;;;;;;;9.53;7.60;;;2.60;99.90;;;;;;5010142;28;20935;-66
2021/04/24 03:44:45;;;;;;;10.37;8.03;;;2.60;99.90;;;;;;5010332;28;20919;-66
2021/04/24 03:47:12;;;;;;;12.00;7.73;;;2.60;99.90;;;;;;5009670;28;20481;-66
2021/04/24 03:49:38;;;;;;;24.20;8.80;;;2.60;99.90;;;;;;5010002;28;20448;-65
2021/04/24 03:52:05;;;;;;;10.93;7.67;;;2.60;99.90;;;;;;5009611;28;20486;-66
2021/04/24 03:54:32;;;;;;;13.30;7.50;;;2.60;99.90;;;;;;5009739;28;20616;-66
2021/04/24 03:56:59;;;;;;;10.77;7.53;;;2.60;99.90;;;;;;5010059;28;20465;-66
2021/04/24 03:59:26;;;;;;;13.37;7.77;;;2.60;99.90;;;;;;5010423;28;20945;-66
2021/04/24 04:01:52;;;;;;;15.20;6.50;;;2.50;99.90;;;;;;5012977;28;20469;-66
2021/04/24 04:04:19;;;;;;;11.47;7.17;;;2.50;99.90;;;;;;5013120;28;20465;-66
2021/04/24 04:06:45;;;;;;;11.17;7.87;;;2.40;99.90;;;;;;5013177;28;20625;-66
2021/04/24 04:09:12;;;;;;;11.60;7.87;;;2.40;99.90;;;;;;5012931;28;20465;-66
2021/04/24 04:11:38;;;;;;;12.13;7.70;;;2.30;99.90;;;;;;5012724;28;20843;-66
2021/04/24 04:14:05;;;;;;;10.33;8.53;;;2.40;99.90;;;;;;5011699;28;20490;-66
2021/04/24 04:16:32;;;;;;;11.60;7.60;;;2.40;99.90;;;;;;5012167;28;20442;-66
2021/04/24 04:18:58;;;;;;;11.77;7.93;;;2.40;99.90;;;;;;5012410;28;20476;-66
2021/04/24 04:21:24;;;;;;;14.07;7.60;;;2.40;99.90;;;;;;5012321;28;20878;-66
2021/04/24 04:23:51;;;;;;;9.47;7.40;;;2.40;99.90;;;;;;5012456;28;20930;-65
2021/04/24 04:26:18;;;;;;;11.73;7.00;;;2.40;99.90;;;;;;5012329;28;20452;-66
2021/04/24 04:28:44;;;;;;;10.53;6.67;;;2.40;99.90;;;;;;5012023;28;20449;-66
2021/04/24 04:31:11;;;;;;;10.63;7.43;;;2.30;99.90;;;;;;5011900;28;20456;-66
2021/04/24 04:33:38;;;;;;;10.03;7.17;;;2.40;99.90;;;;;;5011436;28;20495;-66
2021/04/24 04:36:05;;;;;;;16.10;9.20;;;2.30;99.90;;;;;;5012418;28;20544;-66
2021/04/24 04:38:32;;;;;;;12.77;7.27;;;2.20;99.90;;;;;;5012002;28;20968;-66
2021/04/24 04:40:58;;;;;;;11.10;7.33;;;2.20;99.90;;;;;;5012331;28;20532;-66
2021/04/24 04:43:25;;;;;;;11.73;8.10;;;2.10;99.90;;;;;;5011767;28;20553;-66
2021/04/24 04:45:52;;;;;;;11.80;8.00;;;2.10;99.90;;;;;;5011874;28;20452;-66
2021/04/24 04:48:19;;;;;;;14.80;8.77;;;2.20;99.90;;;;;;5011665;28;20901;-66
2021/04/24 04:50:46;;;;;;;9.77;7.10;;;2.20;99.90;;;;;;5012012;28;20457;-66
2021/04/24 04:53:12;;;;;;;9.83;7.47;;;2.30;99.90;;;;;;5012204;28;20886;-66
2021/04/24 04:55:38;;;;;;;11.10;7.90;;;2.30;99.90;;;;;;5012582;28;20929;-66
2021/04/24 04:58:05;;;;;;;12.23;8.40;;;2.30;99.90;;;;;;5013127;28;21019;-65
2021/04/24 05:00:32;;;;;;;11.60;7.30;;;2.30;99.90;;;;;;5013239;28;20460;-65
2021/04/24 05:02:59;;;;;;;9.20;7.40;;;2.30;99.90;;;;;;5012935;28;20462;-65
2021/04/24 05:05:26;;;;;;;9.57;7.17;;;2.30;99.90;;;;;;5014157;28;20512;-65
2021/04/24 05:07:53;;;;;;;9.87;7.80;;;2.20;99.90;;;;;;5013721;28;20449;-65
2021/04/24 05:10:20;;;;;;;10.77;8.00;;;2.30;99.90;;;;;;5013322;28;20544;-65
2021/04/24 05:12:46;;;;;;;10.37;7.73;;;2.30;99.90;;;;;;5011882;28;20507;-66
2021/04/24 05:15:14;;;;;;;13.60;8.10;;;2.30;99.90;;;;;;5012113;28;20477;-65
2021/04/24 05:17:41;;;;;;;13.83;7.50;;;2.40;99.90;;;;;;5012060;28;20508;-66
2021/04/24 05:20:09;;;;;;;11.60;8.23;;;2.40;99.90;;;;;;5012449;28;20458;-65
2021/04/24 05:22:37;;;;;;;10.70;8.40;;;2.50;99.90;;;;;;5011434;28;20962;-65
2021/04/24 05:25:04;;;;;;;11.63;6.67;;;2.70;99.90;;;;;;5012260;28;20458;-66
2021/04/24 05:27:31;;;;;;;11.20;7.77;;;2.80;99.90;;;;;;5012121;28;20457;-65
2021/04/24 05:29:58;;;;;;;12.70;7.87;;;3.00;99.90;;;;;;5012078;28;20463;-66
2021/04/24 05:32:24;;;;;;;8.60;7.30;;;3.10;99.90;;;;;;5011797;28;20952;-65
2021/04/24 05:34:50;;;;;;;11.67;7.13;;;3.20;99.90;;;;;;5012239;28;20826;-66
2021/04/24 05:37:17;;;;;;;16.47;8.03;;;3.30;99.90;;;;;;5012191;28;21024;-66
2021/04/24 05:39:44;;;;;;;9.13;7.33;;;3.40;99.90;;;;;;5012218;28;20449;-65
2021/04/24 05:42:11;;;;;;;11.93;8.90;;;3.50;99.90;;;;;;5012078;28;21030;-65
2021/04/24 05:44:37;;;;;;;17.90;7.70;;;3.60;99.90;;;;;;5011387;28;20549;-66
2021/04/24 05:47:03;;;;;;;13.03;7.90;;;3.70;99.90;;;;;;5011747;28;20464;-65
2021/04/24 05:49:31;;;;;;;14.43;8.77;;;3.80;99.90;;;;;;5011232;28;20960;-66
2021/04/24 05:51:58;;;;;;;8.03;7.10;;;3.90;99.90;;;;;;5010923;28;20454;-65
2021/04/24 05:54:25;;;;;;;12.43;7.83;;;4.00;99.90;;;;;;5010669;28;20492;-65
2021/04/24 05:56:52;;;;;;;10.97;8.90;;;4.20;99.90;;;;;;5010807;28;20536;-66
2021/04/24 05:59:18;;;;;;;13.13;8.77;;;4.40;99.90;;;;;;5010630;28;21083;-65
2021/04/24 06:01:45;;;;;;;15.87;9.03;;;4.60;99.90;;;;;;5010717;28;20545;-66
2021/04/24 06:04:11;;;;;;;10.80;7.83;;;4.80;99.90;;;;;;5010518;28;20461;-66
2021/04/24 06:06:38;;;;;;;11.90;9.67;;;4.80;99.90;;;;;;5010949;28;20481;-65
2021/04/24 06:09:05;;;;;;;14.07;8.90;;;4.90;99.90;;;;;;5010624;28;20476;-66
2021/04/24 06:11:31;;;;;;;13.80;8.80;;;5.10;99.90;;;;;;5010449;28;20883;-66
2021/04/24 06:13:59;;;;;;;15.70;9.03;;;5.20;99.90;;;;;;5009886;28;20498;-66
2021/04/24 06:16:25;;;;;;;11.90;9.20;;;5.40;99.90;;;;;;5010284;28;20450;-66
2021/04/24 06:18:51;;;;;;;10.23;8.13;;;5.50;99.90;;;;;;5011004;28;20450;-66
2021/04/24 06:21:18;;;;;;;16.10;9.03;;;5.70;99.90;;;;;;5010199;28;20967;-65
2021/04/24 06:23:44;;;;;;;10.63;8.43;;;5.80;99.90;;;;;;5008942;28;20470;-65
2021/04/24 06:26:10;;;;;;;16.60;9.77;;;5.90;99.90;;;;;;5018087;28;20528;-66
2021/04/24 06:28:39;;;;;;;16.77;9.43;;;6.10;99.90;;;;;;5018938;28;20552;-65
2021/04/24 06:31:06;;;;;;;11.50;8.93;;;6.30;99.90;;;;;;5023547;28;20975;-66
2021/04/24 06:33:33;;;;;;;12.17;8.90;;;6.40;99.90;;;;;;5023207;28;20512;-65
2021/04/24 06:35:59;;;;;;;15.03;8.73;;;6.50;99.90;;;;;;5012360;28;20445;-66
2021/04/24 06:38:25;;;;;;;11.20;8.43;;;6.60;99.90;;;;;;5023647;28;21013;-66
2021/04/24 06:40:52;;;;;;;14.57;8.97;;;6.70;99.90;;;;;;5017255;28;20469;-66
2021/04/24 06:43:18;;;;;;;11.87;8.43;;;6.80;99.90;;;;;;5017967;28;20457;-65
2021/04/24 06:45:45;;;;;;;10.20;8.87;;;6.90;99.90;;;;;;5008529;28;20822;-65
2021/04/24 06:48:12;;;;;;;13.23;9.30;;;6.90;99.90;;;;;;5016345;28;20515;-66
2021/04/24 06:50:38;;;;;;;14.63;9.40;;;7.10;99.90;;;;;;5004868;28;20847;-65
2021/04/24 06:53:05;;;;;;;16.70;8.27;;;7.10;99.90;;;;;;5009868;28;20485;-65
2021/04/24 06:55:31;;;;;;;11.60;8.43;;;7.30;99.90;;;;;;5012514;28;20854;-65
2021/04/24 06:57:57;;;;;;;15.90;10.30;;;7.50;99.90;;;;;;5011086;28;20544;-65
2021/04/24 07:00:24;;;;;;;11.93;8.30;;;7.60;99.90;;;;;;5017078;28;20456;-65
2021/04/24 07:02:51;;;;;;;12.73;9.47;;;7.70;99.90;;;;;;5009637;28;20469;-65
2021/04/24 07:05:18;;;;;;;11.10;9.43;;;7.90;99.90;;;;;;5010319;28;20442;-66
2021/04/24 07:07:45;;;;;;;12.37;9.30;;;8.10;99.90;;;;;;5010298;28;20542;-65
2021/04/24 07:10:13;;;;;;;14.67;8.90;;;8.20;99.90;;;;;;5011307;28;20469;-65
2021/04/24 07:12:39;;;;;;;11.27;9.60;;;8.40;99.90;;;;;;5012499;28;21162;-65
2021/04/24 07:15:08;;;;;;;11.00;8.67;;;8.50;99.90;;;;;;5012907;28;20565;-70
2021/04/24 07:17:34;;;;;;;12.83;10.23;;;8.60;99.90;;;;;;5009932;28;20529;-65
2021/04/24 07:20:01;;;;;;;12.97;9.30;;;8.70;99.90;;;;;;5009754;28;20453;-65
2021/04/24 07:22:28;;;;;;;13.30;9.60;;;8.90;99.90;;;;;;5009276;28;20520;-65
2021/04/24 07:24:55;;;;;;;12.93;8.40;;;9.10;99.90;;;;;;5014200;28;20484;-65
2021/04/24 07:27:21;;;;;;;12.90;9.20;;;9.20;99.90;;;;;;5013415;28;20473;-65
2021/04/24 07:29:47;;;;;;;13.37;9.77;;;9.30;99.90;;;;;;5010361;28;20495;-65
2021/04/24 07:32:14;;;;;;;12.17;9.07;;;9.50;99.90;;;;;;5008741;28;20930;-64
2021/04/24 07:34:40;;;;;;;13.63;9.63;;;9.60;99.90;;;;;;5011742;28;20540;-65
2021/04/24 07:37:06;;;;;;;12.00;8.87;;;9.80;99.90;;;;;;5017667;28;20441;-66
2021/04/24 07:39:34;;;;;;;16.20;9.67;;;9.90;99.90;;;;;;5020280;28;20510;-67
2021/04/24 07:42:00;;;;;;;10.57;8.00;;;10.00;99.90;;;;;;5022311;28;20534;-67
2021/04/24 07:44:26;;;;;;;12.60;9.23;;;10.10;99.90;;;;;;5016378;28;20537;-67
2021/04/24 07:46:53;;;;;;;13.43;9.73;;;10.20;99.80;;;;;;5019156;28;20544;-68
2021/04/24 07:49:20;;;;;;;18.97;10.13;;;10.50;99.20;;;;;;5020470;28;20528;-65
2021/04/24 07:51:46;;;;;;;12.50;9.60;;;10.50;98.30;;;;;;5017610;28;20460;-64
2021/04/24 07:54:14;;;;;;;16.70;9.47;;;10.60;98.30;;;;;;5014222;28;21018;-67
2021/04/24 07:56:43;;;;;;;13.03;9.70;;;10.70;98.60;;;;;;5016295;28;20450;-66
2021/04/24 07:59:10;;;;;;;11.77;8.93;;;10.80;99.20;;;;;;5013240;28;20927;-65
2021/04/24 08:01:37;;;;;;;11.63;8.60;;;10.90;99.90;;;;;;5013828;28;20441;-65
2021/04/24 08:04:05;;;;;;;13.60;9.77;;;11.00;99.90;;;;;;5013893;28;20462;-66
2021/04/24 08:06:31;;;;;;;12.17;9.73;;;11.20;98.70;;;;;;5013206;28;21093;-67
2021/04/24 08:08:58;;;;;;;27.87;12.27;;;11.30;98.30;;;;;;5013212;28;20469;-66
2021/04/24 08:11:24;;;;;;;13.27;9.87;;;11.50;97.10;;;;;;5010063;28;20489;-64
2021/04/24 08:13:52;;;;;;;19.17;9.67;;;11.70;97.30;;;;;;5011497;28;20481;-65
2021/04/24 08:16:18;;;;;;;12.07;9.10;;;11.80;98.20;;;;;;5012266;28;20485;-66
2021/04/24 08:18:45;;;;;;;10.77;8.63;;;12.00;96.90;;;;;;5011463;28;20540;-64
2021/04/24 08:21:11;;;;;;;9.70;8.10;;;12.10;97.10;;;;;;5011557;28;20458;-65
2021/04/24 08:23:37;;;;;;;13.10;9.50;;;12.20;96.20;;;;;;5004506;28;20485;-66
2021/04/24 08:26:04;;;;;;;11.10;8.80;;;12.40;96.40;;;;;;5005346;28;20525;-66
2021/04/24 08:28:30;;;;;;;13.80;8.90;;;12.60;96.50;;;;;;5003073;28;20538;-66
2021/04/24 08:30:57;;;;;;;13.30;9.40;;;12.70;96.10;;;;;;4994567;28;20449;-65
2021/04/24 08:33:24;;;;;;;12.27;9.33;;;12.70;94.80;;;;;;4992136;28;20770;-66
2021/04/24 08:35:50;;;;;;;13.03;9.63;;;12.90;95.60;;;;;;5001985;28;20478;-66
2021/04/24 08:38:16;;;;;;;15.37;9.17;;;13.20;95.20;;;;;;5012398;28;20457;-64
2021/04/24 08:40:43;;;;;;;12.40;9.30;;;13.40;95.00;;;;;;5012124;28;20565;-65
2021/04/24 08:43:10;;;;;;;13.50;9.87;;;13.40;93.70;;;;;;5011813;28;20554;-65
2021/04/24 08:45:37;;;;;;;11.77;8.80;;;13.20;93.20;;;;;;5011331;28;20568;-63
2021/04/24 08:48:06;;;;;;;9.30;8.00;;;13.30;94.60;;;;;;5012219;28;20457;-66
2021/04/24 08:50:33;;;;;;;9.37;7.33;;;13.60;94.80;;;;;;5012304;28;20540;-65
2021/04/24 08:53:01;;;;;;;10.10;8.33;;;13.90;93.30;;;;;;5011935;28;20580;-66
2021/04/24 08:55:29;;;;;;;13.40;9.90;;;14.00;91.00;;;;;;5012286;28;20965;-64
2021/04/24 08:57:56;;;;;;;12.27;8.57;;;14.10;90.90;;;;;;5012144;28;20504;-65
2021/04/24 09:00:25;;;;;;;14.23;8.50;;;14.20;91.70;;;;;;5012562;28;20543;-65
2021/04/24 09:02:52;;;;;;;11.10;7.83;;;14.20;90.50;;;;;;5011819;28;20548;-65
2021/04/24 09:05:21;;;;;;;9.40;7.97;;;14.40;91.20;;;;;;5012586;28;20452;-66
2021/04/24 09:07:56;;;;;;;12.27;9.33;;;14.60;90.00;;;;;;5012713;28;20445;-66
2021/04/24 09:10:23;;;;;;;11.43;8.63;;;14.70;90.30;;;;;;5012097;28;20496;-65
2021/04/24 09:12:50;;;;;;;10.87;8.70;;;14.80;87.90;;;;;;5011326;28;20542;-65
2021/04/24 09:15:20;;;;;;;10.90;8.33;;;14.80;84.30;;;;;;5011760;28;20519;-65
2021/04/24 09:17:52;;;;;;;11.63;8.20;;;14.80;84.40;;;;;;5011883;28;20588;-64
2021/04/24 09:20:20;;;;;;;11.80;8.73;;;15.10;88.90;;;;;;5011907;28;20476;-65
2021/04/24 09:23:02;;;;;;;14.13;9.17;;;15.40;87.40;;;;;;5011227;28;20474;-65
2021/04/24 09:25:30;;;;;;;16.37;8.30;;;15.70;85.20;;;;;;5011623;28;21180;-65
2021/04/24 09:27:56;;;;;;;15.50;9.00;;;16.10;83.20;;;;;;5011337;28;20454;-66
2021/04/24 09:30:27;;;;;;;13.30;8.53;;;16.60;82.70;;;;;;5011662;28;20560;-66
2021/04/24 09:32:55;;;;;;;12.20;9.87;;;17.10;81.60;;;;;;5011207;28;20517;-65
2021/04/24 09:35:22;;;;;;;15.13;8.17;;;17.80;84.50;;;;;;5011465;28;21036;-66
2021/04/24 09:37:58;;;;;;;11.23;8.47;;;18.60;80.30;;;;;;5011431;28;20452;-66
2021/04/24 09:40:26;;;;;;;13.40;8.77;;;18.80;72.20;;;;;;5011336;28;20467;-63
2021/04/24 09:42:58;;;;;;;12.43;10.17;;;19.20;70.00;;;;;;5011109;28;20477;-62
2021/04/24 09:45:29;;;;;;;13.23;10.60;;;19.90;69.70;;;;;;5005919;28;20446;-65
2021/04/24 09:47:57;;;;;;;13.40;10.23;;;20.60;65.80;;;;;;5011592;28;20473;-65
2021/04/24 09:50:34;;;;;;;12.63;9.83;;;21.00;64.00;;;;;;5011390;28;21032;-65
2021/04/24 09:53:27;;;;;;;11.63;9.93;;;20.90;63.20;;;;;;5010870;28;20499;-65
2021/04/24 09:55:55;;;;;;;10.83;9.50;;;21.10;66.60;;;;;;4976036;28;20461;-65
2021/04/24 09:58:31;;;;;;;11.97;9.83;;;21.10;60.10;;;;;;5011106;28;20920;-64
2021/04/24 10:00:59;;;;;;;14.60;10.20;;;21.30;62.30;;;;;;5011081;28;21019;-63
2021/04/24 10:03:39;;;;;;;10.40;8.90;;;21.50;60.30;;;;;;5003462;28;20511;-65
2021/04/24 10:06:37;;;;;;;9.87;8.17;;;21.80;55.70;;;;;;5001384;28;20439;-65
2021/04/24 10:09:15;;;;;;;9.97;8.50;;;22.00;55.50;;;;;;4947323;28;21003;-64
2021/04/24 10:11:43;;;;;;;11.50;8.47;;;22.10;51.90;;;;;;5001626;28;21068;-64
2021/04/24 10:14:29;;;;;;;12.57;9.37;;;22.30;49.60;;;;;;5010581;28;20494;-64
2021/04/24 10:16:57;;;;;;;12.30;9.80;;;22.10;53.40;;;;;;5009914;28;21222;-62
2021/04/24 10:19:25;;;;;;;10.07;9.03;;;22.30;47.80;;;;;;5052133;22;20491;-65
2021/04/24 10:21:56;;;;;;;12.10;8.80;;;22.30;53.50;;;;;;5040608;28;20432;-66
2021/04/24 10:24:24;;;;;;;10.90;8.67;;;22.40;49.60;;;;;;5049031;28;20952;-65
2021/04/24 10:26:52;;;;;;;9.83;7.90;;;22.80;48.00;;;;;;5049398;28;20922;-66
2021/04/24 10:29:19;;;;;;;10.37;8.23;;;23.00;47.10;;;;;;5049870;28;20527;-66
2021/04/24 10:31:46;;;;;;;9.57;7.93;;;23.30;49.40;;;;;;5049671;28;20439;-66
2021/04/24 10:34:14;;;;;;;9.57;7.93;;;23.40;42.60;;;;;;5049813;28;20598;-66
2021/04/24 10:36:41;;;;;;;10.63;7.57;;;23.60;43.50;;;;;;5049387;28;20970;-66
2021/04/24 10:39:10;;;;;;;10.17;8.77;;;23.60;47.20;;;;;;5050444;28;20838;-67
2021/04/24 10:41:39;;;;;;;11.30;8.90;;;23.60;47.00;;;;;;5050224;28;20530;-66
2021/04/24 10:44:07;;;;;;;12.83;9.50;;;23.70;44.80;;;;;;5049827;28;20455;-66
2021/04/24 10:46:36;;;;;;;12.30;9.13;;;23.60;46.00;;;;;;5050901;28;20444;-67
2021/04/24 10:49:19;;;;;;;10.33;8.83;;;24.00;44.60;;;;;;5049062;28;20464;-67
2021/04/24 10:52:02;;;;;;;10.97;8.50;;;24.20;43.30;;;;;;5049129;28;20543;-65
2021/04/24 10:54:31;;;;;;;9.97;7.97;;;23.20;42.90;;;;;;5046560;28;20534;-65
2021/04/24 10:56:59;;;;;;;12.33;9.13;;;22.90;43.00;;;;;;5048916;28;20474;-67
2021/04/24 10:59:27;;;;;;;12.90;9.73;;;23.20;43.70;;;;;;5048931;28;20459;-67
2021/04/24 11:02:05;;;;;;;19.13;11.17;;;22.90;43.10;;;;;;5049434;28;20455;-67
2021/04/24 11:04:46;;;;;;;11.00;9.80;;;22.90;43.10;;;;;;5048636;28;20502;-68
2021/04/24 11:07:21;;;;;;;11.47;9.37;;;23.20;44.80;;;;;;5049101;28;20455;-66
2021/04/24 11:10:25;;;;;;;11.20;9.20;;;23.20;40.90;;;;;;5052351;28;20930;-67
2021/04/24 11:12:54;;;;;;;12.80;8.77;;;22.40;43.10;;;;;;5052811;28;20488;-67
2021/04/24 11:15:22;;;;;;;13.47;8.43;;;21.70;43.10;;;;;;5053151;28;20539;-65
2021/04/24 11:17:52;;;;;;;11.37;8.43;;;21.10;44.50;;;;;;5053177;28;20452;-65
2021/04/24 11:20:47;;;;;;;11.70;9.17;;;21.40;49.20;;;;;;5052640;28;20696;-66
2021/04/24 11:23:50;;;;;;;9.90;8.90;;;22.00;45.10;;;;;;5052899;28;20452;-66
2021/04/24 11:26:22;;;;;;;12.00;8.50;;;22.20;42.80;;;;;;5052809;28;20511;-65
2021/04/24 11:29:10;;;;;;;10.17;9.13;;;22.50;41.90;;;;;;5052404;28;20468;-65
2021/04/24 11:31:49;;;;;;;10.43;8.80;;;22.80;41.30;;;;;;5051219;28;20448;-66
2021/04/24 11:34:23;;;;;;;12.70;9.10;;;22.10;40.70;;;;;;5052325;28;20476;-67
2021/04/24 11:37:25;;;;;;;13.40;9.10;;;22.20;42.70;;;;;;5033562;28;20476;-67
2021/04/24 11:40:15;;;;;;;15.83;10.17;;;21.80;40.80;;;;;;5033152;28;20460;-66
2021/04/24 11:42:51;;;;;;;11.73;7.70;;;21.60;41.60;;;;;;5033097;28;20520;-66
2021/04/24 11:45:58;;;;;;;14.03;8.47;;;22.00;40.00;;;;;;5033250;28;20531;-68
2021/04/24 11:49:05;;;;;;;11.27;8.10;;;22.90;39.80;;;;;;5033523;28;20455;-64
2021/04/24 11:51:41;;;;;;;10.17;7.87;;;22.80;39.90;;;;;;5033239;28;20456;-65
2021/04/24 11:54:10;;;;;;;16.57;9.37;;;22.90;40.40;;;;;;5032927;28;20538;-65
2021/04/24 11:56:37;;;;;;;10.37;7.60;;;22.60;40.00;;;;;;5032942;28;20490;-65
2021/04/24 11:59:04;;;;;;;8.27;6.47;;;22.60;39.70;;;;;;5032994;28;20484;-65
2021/04/24 12:01:32;;;;;;;9.20;7.10;;;22.50;40.30;;;;;;5033314;28;21006;-66
2021/04/24 12:03:59;;;;;;;10.60;8.10;;;22.30;38.60;;;;;;5032702;28;20531;-66
2021/04/24 12:06:37;;;;;;;9.97;7.60;;;22.10;39.90;;;;;;5033027;28;20935;-67
2021/04/24 12:09:05;;;;;;;8.40;7.50;;;22.20;38.40;;;;;;5032818;28;20497;-66
2021/04/24 12:11:31;;;;;;;8.20;7.17;;;22.60;42.90;;;;;;5032270;28;20530;-65
2021/04/24 12:13:58;;;;;;;9.87;7.53;;;23.30;43.90;;;;;;5032151;28;20477;-66
2021/04/24 12:16:39;;;;;;;8.33;7.50;;;24.10;40.00;;;;;;5029435;28;20459;-66
2021/04/24 12:19:32;;;;;;;11.93;9.57;;;24.60;42.20;;;;;;5031126;28;20487;-66
2021/04/24 12:22:05;;;;;;;11.20;8.63;;;24.80;41.20;;;;;;5029854;28;20457;-66
2021/04/24 12:24:32;;;;;;;8.10;7.30;;;25.10;39.80;;;;;;5027466;28;20889;-66
2021/04/24 12:26:58;;;;;;;9.70;7.07;;;25.60;39.00;;;;;;5022649;28;21018;-66
2021/04/24 12:29:42;;;;;;;9.20;7.67;;;25.90;36.80;;;;;;5028785;28;20982;-67
2021/04/24 12:32:18;;;;;;;8.90;7.57;;;26.00;37.10;;;;;;5029274;28;20507;-66
2021/04/24 12:34:44;;;;;;;11.00;7.43;;;26.10;36.00;;;;;;5029394;28;20503;-66
2021/04/24 12:37:13;;;;;;;8.77;6.80;;;26.30;35.10;;;;;;5029356;28;20539;-66
2021/04/24 12:39:40;;;;;;;8.37;6.80;;;26.10;33.20;;;;;;5021045;28;20472;-66
2021/04/24 12:42:09;;;;;;;9.03;6.87;;;25.90;37.30;;;;;;5023208;28;20484;-66
2021/04/24 12:44:36;;;;;;;7.87;6.83;;;24.90;33.10;;;;;;5026878;28;20441;-65
2021/04/24 12:47:03;;;;;;;9.47;6.33;;;25.00;33.60;;;;;;5028077;28;20861;-66
2021/04/24 12:49:31;;;;;;;12.37;6.67;;;25.00;33.70;;;;;;5025169;28;20483;-66
2021/04/24 12:52:07;;;;;;;13.20;6.27;;;25.40;32.50;;;;;;5028246;28;20445;-66